sensor_id;sensor_type;location;lat;lon;timestamp;pressure;altitude;pressure_sealevel;temperature;humidity
15263;BME280;7733;51.554;13.590;2023-01-31T00:01:32;100397.50;;;4.28;100.00
15263;BME280;7733;51.554;13.590;2023-01-31T00:04:01;100401.84;;;4.29;100.00
15263;BME280;7733;51.554;13.590;2023-01-31T00:06:45;100410.38;;;4.20;100.00
15263;BME280;7733;51.554;13.590;2023-01-31T00:09:16;100402.66;;;4.22;100.00
15263;BME280;7733;51.554;13.590;2023-01-31T00:11:42;100407.78;;;4.19;100.00
15263;BME280;7733;51.554;13.590;2023-01-31T00:14:08;100415.53;;;4.16;100.00
15263;BME280;7733;51.554;13.590;2023-01-31T00:16:37;100418.28;;;4.26;100.00
15263;BME280;7733;51.554;13.590;2023-01-31T00:19:03;100417.38;;;4.24;100.00
15263;BME280;7733;51.554;13.590;2023-01-31T00:21:30;100405.25;;;4.23;100.00
15263;BME280;7733;51.554;13.590;2023-01-31T00:23:58;100416.50;;;4.24;100.00
15263;BME280;7733;51.554;13.590;2023-01-31T00:26:31;100399.91;;;4.13;100.00
15263;BME280;7733;51.554;13.590;2023-01-31T00:29:00;100404.41;;;4.24;100.00
15263;BME280;7733;51.554;13.590;2023-01-31T00:31:29;100416.44;;;4.19;100.00
15263;BME280;7733;51.554;13.590;2023-01-31T00:33:55;100412.09;;;4.20;100.00
15263;BME280;7733;51.554;13.590;2023-01-31T00:36:29;100421.53;;;4.10;100.00
15263;BME280;7733;51.554;13.590;2023-01-31T00:38:58;100417.28;;;4.17;100.00
15263;BME280;7733;51.554;13.590;2023-01-31T00:41:27;100425.09;;;4.20;100.00
15263;BME280;7733;51.554;13.590;2023-01-31T00:43:53;100419.81;;;4.14;100.00
15263;BME280;7733;51.554;13.590;2023-01-31T00:46:20;100416.44;;;4.19;100.00
15263;BME280;7733;51.554;13.590;2023-01-31T00:48:47;100421.50;;;4.09;100.00
15263;BME280;7733;51.554;13.590;2023-01-31T00:51:13;100431.09;;;4.14;100.00
15263;BME280;7733;51.554;13.590;2023-01-31T00:53:39;100434.50;;;4.10;100.00
15263;BME280;7733;51.554;13.590;2023-01-31T00:56:12;100438.84;;;4.11;100.00
15263;BME280;7733;51.554;13.590;2023-01-31T00:58:39;100448.38;;;4.14;100.00
15263;BME280;7733;51.554;13.590;2023-01-31T01:01:26;100450.34;;;4.33;100.00
15263;BME280;7733;51.554;13.590;2023-01-31T01:03:54;100449.47;;;4.31;100.00
15263;BME280;7733;51.554;13.590;2023-01-31T01:06:21;100458.13;;;4.32;100.00
15263;BME280;7733;51.554;13.590;2023-01-31T01:08:47;100446.94;;;4.37;100.00
15263;BME280;7733;51.554;13.590;2023-01-31T01:11:18;100458.31;;;4.47;100.00
15263;BME280;7733;51.554;13.590;2023-01-31T01:13:44;100462.63;;;4.43;100.00
15263;BME280;7733;51.554;13.590;2023-01-31T01:16:17;100443.44;;;4.35;100.00
15263;BME280;7733;51.554;13.590;2023-01-31T01:18:44;100451.28;;;4.40;100.00
15263;BME280;7733;51.554;13.590;2023-01-31T01:21:25;100448.66;;;4.37;100.00
15263;BME280;7733;51.554;13.590;2023-01-31T01:23:54;100462.59;;;4.42;100.00
15263;BME280;7733;51.554;13.590;2023-01-31T01:26:26;100458.09;;;4.28;100.00
15263;BME280;7733;51.554;13.590;2023-01-31T01:28:55;100471.91;;;4.26;100.00
15263;BME280;7733;51.554;13.590;2023-01-31T01:31:22;100474.47;;;4.23;100.00
15263;BME280;7733;51.554;13.590;2023-01-31T01:33:56;100477.22;;;4.35;100.00
15263;BME280;7733;51.554;13.590;2023-01-31T01:36:23;100483.16;;;4.25;100.00
15263;BME280;7733;51.554;13.590;2023-01-31T01:38:49;100476.28;;;4.30;100.00
15263;BME280;7733;51.554;13.590;2023-01-31T01:41:15;100475.47;;;4.36;100.00
15263;BME280;7733;51.554;13.590;2023-01-31T01:43:51;100478.88;;;4.28;100.00
15263;BME280;7733;51.554;13.590;2023-01-31T01:48:51;100478.84;;;4.25;100.00
15263;BME280;7733;51.554;13.590;2023-01-31T01:51:20;100476.28;;;4.30;100.00
15263;BME280;7733;51.554;13.590;2023-01-31T01:53:55;100497.88;;;4.26;100.00
15263;BME280;7733;51.554;13.590;2023-01-31T01:56:35;100498.75;;;4.28;100.00
15263;BME280;7733;51.554;13.590;2023-01-31T01:59:11;100508.97;;;4.16;100.00
15263;BME280;7733;51.554;13.590;2023-01-31T02:01:39;100517.72;;;4.21;100.00
15263;BME280;7733;51.554;13.590;2023-01-31T02:04:10;100509.16;;;4.28;100.00
15263;BME280;7733;51.554;13.590;2023-01-31T02:06:38;100516.03;;;4.24;100.00
15263;BME280;7733;51.554;13.590;2023-01-31T02:09:14;100510.72;;;4.17;100.00
15263;BME280;7733;51.554;13.590;2023-01-31T02:11:41;100508.03;;;4.11;100.00
15263;BME280;7733;51.554;13.590;2023-01-31T02:14:09;100514.44;;;4.37;100.00
15263;BME280;7733;51.554;13.590;2023-01-31T02:16:35;100516.91;;;4.25;100.00
15263;BME280;7733;51.554;13.590;2023-01-31T02:19:03;100520.25;;;4.18;100.00
15263;BME280;7733;51.554;13.590;2023-01-31T02:21:56;100530.69;;;4.21;100.00
15263;BME280;7733;51.554;13.590;2023-01-31T02:34:22;100544.44;;;4.15;100.00
15263;BME280;7733;51.554;13.590;2023-01-31T02:37:26;100556.66;;;4.21;100.00
15263;BME280;7733;51.554;13.590;2023-01-31T02:46:02;100585.13;;;4.16;100.00
15263;BME280;7733;51.554;13.590;2023-01-31T02:51:33;100575.66;;;4.20;100.00
15263;BME280;7733;51.554;13.590;2023-01-31T02:54:12;100601.22;;;3.95;100.00
15263;BME280;7733;51.554;13.590;2023-01-31T02:56:43;100589.44;;;4.16;100.00
15263;BME280;7733;51.554;13.590;2023-01-31T02:59:24;100585.78;;;4.02;100.00
15263;BME280;7733;51.554;13.590;2023-01-31T03:02:01;100590.28;;;4.15;100.00
15263;BME280;7733;51.554;13.590;2023-01-31T03:04:32;100596.25;;;4.08;100.00
15263;BME280;7733;51.554;13.590;2023-01-31T03:07:14;100595.41;;;4.09;100.00
15263;BME280;7733;51.554;13.590;2023-01-31T03:18:08;100616.19;;;4.12;100.00
15263;BME280;7733;51.554;13.590;2023-01-31T03:20:52;100614.53;;;4.17;100.00
15263;BME280;7733;51.554;13.590;2023-01-31T03:23:23;100630.91;;;4.11;100.00
15263;BME280;7733;51.554;13.590;2023-01-31T03:25:55;100626.75;;;4.21;100.00
15263;BME280;7733;51.554;13.590;2023-01-31T03:28:28;100621.59;;;4.24;100.00
15263;BME280;7733;51.554;13.590;2023-01-31T03:31:13;100622.69;;;4.40;100.00
15263;BME280;7733;51.554;13.590;2023-01-31T03:33:46;100628.50;;;4.22;100.00
15263;BME280;7733;51.554;13.590;2023-01-31T03:40:17;100632.72;;;4.17;100.00
15263;BME280;7733;51.554;13.590;2023-01-31T03:42:46;100639.59;;;4.13;100.00
15263;BME280;7733;51.554;13.590;2023-01-31T03:45:40;100644.00;;;4.19;100.00
15263;BME280;7733;51.554;13.590;2023-01-31T03:48:08;100642.28;;;4.19;100.00
15263;BME280;7733;51.554;13.590;2023-01-31T03:51:03;100655.19;;;4.16;100.00
15263;BME280;7733;51.554;13.590;2023-01-31T03:53:39;100661.31;;;4.20;100.00
15263;BME280;7733;51.554;13.590;2023-01-31T03:56:23;100657.72;;;4.12;100.00
15263;BME280;7733;51.554;13.590;2023-01-31T03:58:58;100653.72;;;4.32;100.00
15263;BME280;7733;51.554;13.590;2023-01-31T04:01:31;100647.69;;;4.33;100.00
15263;BME280;7733;51.554;13.590;2023-01-31T04:04:39;100649.44;;;4.34;100.00
15263;BME280;7733;51.554;13.590;2023-01-31T04:07:08;100656.25;;;4.26;100.00
15263;BME280;7733;51.554;13.590;2023-01-31T04:09:34;100655.44;;;4.30;100.00
15263;BME280;7733;51.554;13.590;2023-01-31T04:12:02;100658.91;;;4.31;100.00
15263;BME280;7733;51.554;13.590;2023-01-31T04:14:28;100652.00;;;4.33;100.00
15263;BME280;7733;51.554;13.590;2023-01-31T04:19:30;100666.88;;;4.41;100.00
15263;BME280;7733;51.554;13.590;2023-01-31T04:21:55;100675.59;;;4.46;100.00
15263;BME280;7733;51.554;13.590;2023-01-31T04:24:21;100676.38;;;4.41;100.00
15263;BME280;7733;51.554;13.590;2023-01-31T04:26:47;100687.47;;;4.31;100.00
15263;BME280;7733;51.554;13.590;2023-01-31T04:29:13;100677.44;;;4.53;100.00
15263;BME280;7733;51.554;13.590;2023-01-31T04:31:39;100687.81;;;4.53;100.00
15263;BME280;7733;51.554;13.590;2023-01-31T04:34:06;100697.16;;;4.41;100.00
15263;BME280;7733;51.554;13.590;2023-01-31T04:36:32;100700.56;;;4.40;100.00
15263;BME280;7733;51.554;13.590;2023-01-31T04:38:58;100699.03;;;4.51;100.00
15263;BME280;7733;51.554;13.590;2023-01-31T04:41:26;100710.09;;;4.39;100.00
15263;BME280;7733;51.554;13.590;2023-01-31T04:43:52;100698.69;;;4.30;100.00
15263;BME280;7733;51.554;13.590;2023-01-31T04:46:18;100700.56;;;4.38;100.00
15263;BME280;7733;51.554;13.590;2023-01-31T04:48:44;100710.84;;;4.32;100.00
15263;BME280;7733;51.554;13.590;2023-01-31T04:51:10;100716.00;;;4.29;100.00
15263;BME280;7733;51.554;13.590;2023-01-31T04:53:36;100702.13;;;4.27;100.00
15263;BME280;7733;51.554;13.590;2023-01-31T04:56:03;100708.03;;;4.20;100.00
15263;BME280;7733;51.554;13.590;2023-01-31T04:58:30;100716.84;;;4.28;100.00
15263;BME280;7733;51.554;13.590;2023-01-31T05:00:56;100699.47;;;4.24;100.00
15263;BME280;7733;51.554;13.590;2023-01-31T05:03:22;100708.34;;;4.38;100.00
15263;BME280;7733;51.554;13.590;2023-01-31T05:05:49;100698.53;;;4.20;100.00
15263;BME280;7733;51.554;13.590;2023-01-31T05:08:15;100697.78;;;4.26;100.00
15263;BME280;7733;51.554;13.590;2023-01-31T05:10:42;100690.88;;;4.28;100.00
15263;BME280;7733;51.554;13.590;2023-01-31T05:13:09;100704.72;;;4.27;100.00
15263;BME280;7733;51.554;13.590;2023-01-31T05:15:35;100705.66;;;4.32;100.00
15263;BME280;7733;51.554;13.590;2023-01-31T05:18:02;100713.50;;;4.35;100.00
15263;BME280;7733;51.554;13.590;2023-01-31T05:20:37;100717.97;;;4.42;100.00
15263;BME280;7733;51.554;13.590;2023-01-31T05:23:06;100716.31;;;4.49;100.00
15263;BME280;7733;51.554;13.590;2023-01-31T05:25:34;100713.66;;;4.44;100.00
15263;BME280;7733;51.554;13.590;2023-01-31T05:28:00;100713.69;;;4.46;100.00
15263;BME280;7733;51.554;13.590;2023-01-31T05:30:26;100702.16;;;4.28;100.00
15263;BME280;7733;51.554;13.590;2023-01-31T05:32:51;100714.59;;;4.49;100.00
15263;BME280;7733;51.554;13.590;2023-01-31T05:35:17;100718.72;;;4.38;100.00
15263;BME280;7733;51.554;13.590;2023-01-31T05:37:43;100719.72;;;4.43;100.00
15263;BME280;7733;51.554;13.590;2023-01-31T05:40:15;100743.06;;;4.42;100.00
15263;BME280;7733;51.554;13.590;2023-01-31T05:42:42;100732.63;;;4.40;100.00
15263;BME280;7733;51.554;13.590;2023-01-31T05:45:10;100738.81;;;4.47;100.00
15263;BME280;7733;51.554;13.590;2023-01-31T05:47:36;100737.09;;;4.49;100.00
15263;BME280;7733;51.554;13.590;2023-01-31T05:50:02;100731.00;;;4.45;100.00
15263;BME280;7733;51.554;13.590;2023-01-31T05:52:28;100734.56;;;4.53;100.00
15263;BME280;7733;51.554;13.590;2023-01-31T05:54:54;100739.75;;;4.53;100.00
15263;BME280;7733;51.554;13.590;2023-01-31T05:57:20;100737.97;;;4.49;100.00
15263;BME280;7733;51.554;13.590;2023-01-31T05:59:45;100751.06;;;4.55;100.00
15263;BME280;7733;51.554;13.590;2023-01-31T06:02:12;100746.66;;;4.51;100.00
15263;BME280;7733;51.554;13.590;2023-01-31T06:04:38;100750.97;;;4.49;100.00
15263;BME280;7733;51.554;13.590;2023-01-31T06:07:04;100754.53;;;4.57;100.00
15263;BME280;7733;51.554;13.590;2023-01-31T06:09:30;100750.19;;;4.56;100.00
15263;BME280;7733;51.554;13.590;2023-01-31T06:11:55;100764.91;;;4.56;100.00
15263;BME280;7733;51.554;13.590;2023-01-31T06:14:21;100763.94;;;4.49;100.00
15263;BME280;7733;51.554;13.590;2023-01-31T06:16:47;100765.78;;;4.56;100.00
15263;BME280;7733;51.554;13.590;2023-01-31T06:19:13;100767.72;;;4.68;100.00
15263;BME280;7733;51.554;13.590;2023-01-31T06:21:38;100765.94;;;4.66;100.00
15263;BME280;7733;51.554;13.590;2023-01-31T06:24:04;100766.63;;;4.55;100.00
15263;BME280;7733;51.554;13.590;2023-01-31T06:26:30;100765.75;;;4.53;100.00
15263;BME280;7733;51.554;13.590;2023-01-31T06:28:56;100767.50;;;4.56;100.00
15263;BME280;7733;51.554;13.590;2023-01-31T06:31:22;100780.47;;;4.53;100.00
15263;BME280;7733;51.554;13.590;2023-01-31T06:33:47;100774.56;;;4.62;100.00
15263;BME280;7733;51.554;13.590;2023-01-31T06:36:15;100782.09;;;4.46;100.00
15263;BME280;7733;51.554;13.590;2023-01-31T06:38:41;100773.50;;;4.52;100.00
15263;BME280;7733;51.554;13.590;2023-01-31T06:41:06;100766.63;;;4.54;100.00
15263;BME280;7733;51.554;13.590;2023-01-31T06:43:32;100757.72;;;4.40;100.00
15263;BME280;7733;51.554;13.590;2023-01-31T06:45:58;100772.41;;;4.39;100.00
15263;BME280;7733;51.554;13.590;2023-01-31T06:48:24;100768.00;;;4.34;100.00
15263;BME280;7733;51.554;13.590;2023-01-31T06:50:49;100764.53;;;4.33;100.00
15263;BME280;7733;51.554;13.590;2023-01-31T06:53:15;100765.34;;;4.31;100.00
15263;BME280;7733;51.554;13.590;2023-01-31T06:55:41;100763.78;;;4.40;100.00
15263;BME280;7733;51.554;13.590;2023-01-31T06:58:06;100770.84;;;4.47;100.00
15263;BME280;7733;51.554;13.590;2023-01-31T07:00:32;100780.25;;;4.41;100.00
15263;BME280;7733;51.554;13.590;2023-01-31T07:02:58;100784.50;;;4.37;100.00
15263;BME280;7733;51.554;13.590;2023-01-31T07:05:24;100783.69;;;4.40;100.00
15263;BME280;7733;51.554;13.590;2023-01-31T07:07:49;100790.53;;;4.36;100.00
15263;BME280;7733;51.554;13.590;2023-01-31T07:10:16;100783.94;;;4.53;100.00
15263;BME280;7733;51.554;13.590;2023-01-31T07:12:42;100779.44;;;4.43;100.00
15263;BME280;7733;51.554;13.590;2023-01-31T07:15:09;100783.56;;;4.32;100.00
15263;BME280;7733;51.554;13.590;2023-01-31T07:17:35;100797.34;;;4.28;100.00
15263;BME280;7733;51.554;13.590;2023-01-31T07:20:02;100797.50;;;4.39;100.00
15263;BME280;7733;51.554;13.590;2023-01-31T07:22:28;100793.84;;;4.26;100.00
15263;BME280;7733;51.554;13.590;2023-01-31T07:24:53;100792.97;;;4.25;100.00
15263;BME280;7733;51.554;13.590;2023-01-31T07:27:19;100788.72;;;4.31;100.00
15263;BME280;7733;51.554;13.590;2023-01-31T07:29:45;100783.47;;;4.26;100.00
15263;BME280;7733;51.554;13.590;2023-01-31T07:32:11;100785.19;;;4.25;100.00
15263;BME280;7733;51.554;13.590;2023-01-31T07:34:37;100786.94;;;4.26;100.00
15263;BME280;7733;51.554;13.590;2023-01-31T07:37:03;100792.97;;;4.25;100.00
15263;BME280;7733;51.554;13.590;2023-01-31T07:39:28;100789.69;;;4.36;100.00
15263;BME280;7733;51.554;13.590;2023-01-31T07:41:54;100781.75;;;4.28;100.00
15263;BME280;7733;51.554;13.590;2023-01-31T07:44:20;100785.22;;;4.28;100.00
15263;BME280;7733;51.554;13.590;2023-01-31T07:46:46;100782.81;;;4.39;100.00
15263;BME280;7733;51.554;13.590;2023-01-31T07:49:13;100785.34;;;4.36;100.00
15263;BME280;7733;51.554;13.590;2023-01-31T07:51:38;100778.53;;;4.41;100.00
15263;BME280;7733;51.554;13.590;2023-01-31T07:54:05;100779.22;;;4.31;100.00
15263;BME280;7733;51.554;13.590;2023-01-31T07:56:32;100771.41;;;4.30;100.00
15263;BME280;7733;51.554;13.590;2023-01-31T07:58:58;100775.81;;;4.35;100.00
15263;BME280;7733;51.554;13.590;2023-01-31T08:01:26;100778.25;;;4.26;100.00
15263;BME280;7733;51.554;13.590;2023-01-31T08:04:14;100782.66;;;4.30;100.00
15263;BME280;7733;51.554;13.590;2023-01-31T08:06:42;100788.63;;;4.24;100.00
15263;BME280;7733;51.554;13.590;2023-01-31T08:09:09;100785.19;;;4.25;100.00
15263;BME280;7733;51.554;13.590;2023-01-31T08:11:36;100782.38;;;4.15;100.00
15263;BME280;7733;51.554;13.590;2023-01-31T08:14:01;100779.94;;;4.22;100.00
15263;BME280;7733;51.554;13.590;2023-01-31T08:16:28;100779.69;;;4.09;100.00
15263;BME280;7733;51.554;13.590;2023-01-31T08:18:54;100771.16;;;4.17;100.00
15263;BME280;7733;51.554;13.590;2023-01-31T08:21:20;100778.25;;;4.26;100.00
15263;BME280;7733;51.554;13.590;2023-01-31T08:23:46;100776.63;;;4.31;100.00
15263;BME280;7733;51.554;13.590;2023-01-31T08:26:16;100772.78;;;4.11;100.00
15263;BME280;7733;51.554;13.590;2023-01-31T08:28:42;100775.06;;;4.41;100.00
15263;BME280;7733;51.554;13.590;2023-01-31T08:31:15;100772.31;;;4.33;100.00
15263;BME280;7733;51.554;13.590;2023-01-31T08:33:41;100767.94;;;4.31;100.00
15263;BME280;7733;51.554;13.590;2023-01-31T08:36:28;100776.03;;;4.47;100.00
15263;BME280;7733;51.554;13.590;2023-01-31T08:38:56;100767.47;;;4.53;100.00
15263;BME280;7733;51.554;13.590;2023-01-31T08:41:25;100770.13;;;4.57;100.00
15263;BME280;7733;51.554;13.590;2023-01-31T08:43:52;100769.25;;;4.55;100.00
15263;BME280;7733;51.554;13.590;2023-01-31T08:46:20;100764.09;;;4.58;100.00
15263;BME280;7733;51.554;13.590;2023-01-31T08:48:46;100761.63;;;4.66;100.00
15263;BME280;7733;51.554;13.590;2023-01-31T08:51:13;100756.59;;;4.78;100.00
15263;BME280;7733;51.554;13.590;2023-01-31T08:53:41;100761.00;;;4.81;100.00
15263;BME280;7733;51.554;13.590;2023-01-31T08:56:12;100761.13;;;4.90;100.00
15263;BME280;7733;51.554;13.590;2023-01-31T08:58:42;100754.03;;;4.80;100.00
15263;BME280;7733;51.554;13.590;2023-01-31T09:01:15;100764.56;;;4.87;100.00
15263;BME280;7733;51.554;13.590;2023-01-31T09:03:41;100769.69;;;4.83;100.00
15263;BME280;7733;51.554;13.590;2023-01-31T09:06:13;100763.00;;;5.00;100.00
15263;BME280;7733;51.554;13.590;2023-01-31T09:08:39;100763.06;;;5.03;100.00
15263;BME280;7733;51.554;13.590;2023-01-31T09:11:05;100752.72;;;5.06;100.00
15263;BME280;7733;51.554;13.590;2023-01-31T09:13:34;100753.41;;;4.95;100.00
15263;BME280;7733;51.554;13.590;2023-01-31T09:16:08;100752.72;;;5.06;100.00
15263;BME280;7733;51.554;13.590;2023-01-31T09:18:36;100746.81;;;5.19;100.00
15263;BME280;7733;51.554;13.590;2023-01-31T09:21:16;100740.59;;;5.07;100.00
15263;BME280;7733;51.554;13.590;2023-01-31T09:23:42;100734.66;;;5.18;100.00
15263;BME280;7733;51.554;13.590;2023-01-31T09:26:12;100750.28;;;5.20;99.65
15263;BME280;7733;51.554;13.590;2023-01-31T09:28:39;100737.38;;;5.25;99.28
15263;BME280;7733;51.554;13.590;2023-01-31T09:31:14;100750.38;;;5.26;99.08
15263;BME280;7733;51.554;13.590;2023-01-31T09:33:41;100744.31;;;5.26;98.73
15263;BME280;7733;51.554;13.590;2023-01-31T09:36:11;100738.22;;;5.25;98.19
15263;BME280;7733;51.554;13.590;2023-01-31T09:38:37;100744.38;;;5.30;98.48
15263;BME280;7733;51.554;13.590;2023-01-31T09:41:34;100741.78;;;5.33;98.16
15263;BME280;7733;51.554;13.590;2023-01-31T09:44:19;100730.59;;;5.39;97.59
15263;BME280;7733;51.554;13.590;2023-01-31T09:47:07;100725.41;;;5.40;96.90
15263;BME280;7733;51.554;13.590;2023-01-31T09:49:46;100725.25;;;5.27;96.90
15263;BME280;7733;51.554;13.590;2023-01-31T09:52:13;100725.25;;;5.28;96.77
15263;BME280;7733;51.554;13.590;2023-01-31T09:54:40;100724.44;;;5.31;96.60
15263;BME280;7733;51.554;13.590;2023-01-31T10:00:15;100716.63;;;5.32;95.25
15263;BME280;7733;51.554;13.590;2023-01-31T10:03:03;100711.50;;;5.37;95.13
15263;BME280;7733;51.554;13.590;2023-01-31T10:05:51;100713.47;;;5.58;95.23
15263;BME280;7733;51.554;13.590;2023-01-31T10:11:39;100698.69;;;5.55;95.04
15263;BME280;7733;51.554;13.590;2023-01-31T10:14:27;100705.53;;;5.44;95.30
15263;BME280;7733;51.554;13.590;2023-01-31T10:19:43;100696.94;;;5.53;95.72
15263;BME280;7733;51.554;13.590;2023-01-31T10:22:18;100688.25;;;5.50;94.79
15263;BME280;7733;51.554;13.590;2023-01-31T10:24:54;100702.94;;;5.44;95.38
15263;BME280;7733;51.554;13.590;2023-01-31T10:27:47;100686.59;;;5.57;94.61
15263;BME280;7733;51.554;13.590;2023-01-31T10:30:19;100693.59;;;5.61;95.66
15263;BME280;7733;51.554;13.590;2023-01-31T10:32:54;100690.94;;;5.58;96.69
15263;BME280;7733;51.554;13.590;2023-01-31T10:35:27;100685.72;;;5.58;96.75
15263;BME280;7733;51.554;13.590;2023-01-31T10:38:19;100667.44;;;5.49;96.76
15263;BME280;7733;51.554;13.590;2023-01-31T10:40:58;100675.38;;;5.61;96.84
15263;BME280;7733;51.554;13.590;2023-01-31T10:43:38;100671.91;;;5.62;96.49
15263;BME280;7733;51.554;13.590;2023-01-31T10:46:13;100670.09;;;5.55;97.08
15263;BME280;7733;51.554;13.590;2023-01-31T10:48:43;100664.16;;;5.68;97.41
15263;BME280;7733;51.554;13.590;2023-01-31T10:51:23;100653.75;;;5.68;96.23
15263;BME280;7733;51.554;13.590;2023-01-31T10:56:44;100644.19;;;5.64;97.67
15263;BME280;7733;51.554;13.590;2023-01-31T10:59:20;100644.38;;;5.84;97.13
15263;BME280;7733;51.554;13.590;2023-01-31T11:01:48;100650.19;;;5.60;97.54
15263;BME280;7733;51.554;13.590;2023-01-31T11:04:27;100642.47;;;5.66;97.51
15263;BME280;7733;51.554;13.590;2023-01-31T11:06:54;100627.91;;;5.88;96.21
15263;BME280;7733;51.554;13.590;2023-01-31T11:09:23;100619.88;;;5.62;97.11
15263;BME280;7733;51.554;13.590;2023-01-31T11:11:59;100624.28;;;5.72;97.04
15263;BME280;7733;51.554;13.590;2023-01-31T11:14:26;100617.38;;;5.76;96.31
15263;BME280;7733;51.554;13.590;2023-01-31T11:17:15;100618.22;;;5.73;95.96
15263;BME280;7733;51.554;13.590;2023-01-31T11:19:53;100611.44;;;5.88;95.03
15263;BME280;7733;51.554;13.590;2023-01-31T11:22:30;100602.66;;;5.79;95.10
15263;BME280;7733;51.554;13.590;2023-01-31T11:25:00;100594.91;;;5.83;94.60
15263;BME280;7733;51.554;13.590;2023-01-31T11:27:37;100589.72;;;5.86;93.26
15263;BME280;7733;51.554;13.590;2023-01-31T11:30:06;100575.91;;;5.91;92.55
15263;BME280;7733;51.554;13.590;2023-01-31T11:32:43;100551.63;;;5.92;92.93
15263;BME280;7733;51.554;13.590;2023-01-31T11:37:59;100538.59;;;5.92;92.11
15263;BME280;7733;51.554;13.590;2023-01-31T11:40:35;100530.91;;;6.09;91.79
15263;BME280;7733;51.554;13.590;2023-01-31T11:45:32;100524.00;;;6.16;92.16
15263;BME280;7733;51.554;13.590;2023-01-31T11:48:24;100538.75;;;6.12;92.14
15263;BME280;7733;51.554;13.590;2023-01-31T11:50:59;100521.41;;;6.17;91.67
15263;BME280;7733;51.554;13.590;2023-01-31T11:53:48;100530.16;;;6.27;91.78
15263;BME280;7733;51.554;13.590;2023-01-31T11:56:26;100509.31;;;6.27;92.15
15263;BME280;7733;51.554;13.590;2023-01-31T11:59:00;100497.16;;;6.23;92.13
15263;BME280;7733;51.554;13.590;2023-01-31T12:01:51;100496.31;;;6.28;92.16
15263;BME280;7733;51.554;13.590;2023-01-31T12:04:27;100481.47;;;6.14;91.84
15263;BME280;7733;51.554;13.590;2023-01-31T12:09:55;100469.47;;;6.42;92.61
15263;BME280;7733;51.554;13.590;2023-01-31T12:15:12;100464.25;;;6.42;92.02
15263;BME280;7733;51.554;13.590;2023-01-31T12:17:46;100466.00;;;6.49;91.42
15263;BME280;7733;51.554;13.590;2023-01-31T12:20:48;100459.94;;;6.53;91.79
15263;BME280;7733;51.554;13.590;2023-01-31T12:26:44;100444.28;;;6.48;91.28
15263;BME280;7733;51.554;13.590;2023-01-31T12:32:55;100439.06;;;6.42;91.47
15263;BME280;7733;51.554;13.590;2023-01-31T12:44:21;100434.66;;;6.24;94.79
15263;BME280;7733;51.554;13.590;2023-01-31T12:52:57;100393.84;;;6.25;94.68
15263;BME280;7733;51.554;13.590;2023-01-31T12:58:37;100365.22;;;6.35;94.36
15263;BME280;7733;51.554;13.590;2023-01-31T13:01:21;100353.88;;;6.12;94.92
15263;BME280;7733;51.554;13.590;2023-01-31T13:06:53;100320.88;;;6.02;94.58
15263;BME280;7733;51.554;13.590;2023-01-31T13:09:35;100332.22;;;6.25;94.93
15263;BME280;7733;51.554;13.590;2023-01-31T13:12:26;100339.16;;;6.34;94.78
15263;BME280;7733;51.554;13.590;2023-01-31T13:17:33;100338.28;;;6.36;95.69
15263;BME280;7733;51.554;13.590;2023-01-31T13:22:57;100349.47;;;5.99;96.99
15263;BME280;7733;51.554;13.590;2023-01-31T13:26:16;100342.56;;;6.04;98.04
15263;BME280;7733;51.554;13.590;2023-01-31T13:28:54;100339.91;;;5.93;99.29
15263;BME280;7733;51.554;13.590;2023-01-31T13:31:32;100340.78;;;5.97;99.55
15263;BME280;7733;51.554;13.590;2023-01-31T13:34:18;100348.53;;;5.88;100.00
15263;BME280;7733;51.554;13.590;2023-01-31T13:36:50;100330.25;;;5.75;100.00
15263;BME280;7733;51.554;13.590;2023-01-31T13:39:27;100331.97;;;5.69;100.00
15263;BME280;7733;51.554;13.590;2023-01-31T13:41:56;100321.69;;;5.92;100.00
15263;BME280;7733;51.554;13.590;2023-01-31T13:44:22;100315.50;;;5.74;100.00
15263;BME280;7733;51.554;13.590;2023-01-31T13:47:01;100325.03;;;5.75;100.00
15263;BME280;7733;51.554;13.590;2023-01-31T13:49:36;100333.63;;;5.56;100.00
15263;BME280;7733;51.554;13.590;2023-01-31T13:52:13;100318.94;;;5.61;100.00
15263;BME280;7733;51.554;13.590;2023-01-31T13:54:50;100325.88;;;5.61;100.00
15263;BME280;7733;51.554;13.590;2023-01-31T13:57:29;100330.22;;;5.65;100.00
15263;BME280;7733;51.554;13.590;2023-01-31T14:03:06;100323.09;;;5.38;100.00
15263;BME280;7733;51.554;13.590;2023-01-31T14:13:45;100316.88;;;5.10;100.00
15263;BME280;7733;51.554;13.590;2023-01-31T14:16:43;100314.28;;;5.14;100.00
15263;BME280;7733;51.554;13.590;2023-01-31T14:22:03;100314.28;;;5.11;100.00
15263;BME280;7733;51.554;13.590;2023-01-31T14:36:32;100299.63;;;5.23;100.00
15263;BME280;7733;51.554;13.590;2023-01-31T14:52:03;100276.13;;;5.09;100.00
15263;BME280;7733;51.554;13.590;2023-01-31T14:55:19;100280.50;;;5.14;100.00
15263;BME280;7733;51.554;13.590;2023-01-31T14:57:51;100289.25;;;5.24;100.00
15263;BME280;7733;51.554;13.590;2023-01-31T15:00:25;100277.88;;;5.11;100.00
15263;BME280;7733;51.554;13.590;2023-01-31T15:03:19;100297.84;;;5.15;100.00
15263;BME280;7733;51.554;13.590;2023-01-31T15:05:54;100286.59;;;5.18;100.00
15263;BME280;7733;51.554;13.590;2023-01-31T15:11:03;100286.56;;;5.12;100.00
15263;BME280;7733;51.554;13.590;2023-01-31T15:16:09;100287.41;;;5.12;100.00
15263;BME280;7733;51.554;13.590;2023-01-31T15:18:44;100301.28;;;5.13;100.00
15263;BME280;7733;51.554;13.590;2023-01-31T15:21:19;100297.81;;;5.09;100.00
15263;BME280;7733;51.554;13.590;2023-01-31T15:23:47;100288.25;;;5.05;100.00
15263;BME280;7733;51.554;13.590;2023-01-31T15:26:15;100296.97;;;5.13;100.00
15263;BME280;7733;51.554;13.590;2023-01-31T15:28:43;100288.28;;;5.11;100.00
15263;BME280;7733;51.554;13.590;2023-01-31T15:31:23;100289.13;;;5.06;100.00
15263;BME280;7733;51.554;13.590;2023-01-31T15:33:57;100288.31;;;5.19;100.00